createdAt,value
2017-07-08T00:00:29.921Z,69.40
2017-07-08T00:02:57.453Z,69.70
2017-07-08T00:05:25.030Z,69.50
2017-07-08T00:07:52.575Z,69.50
2017-07-08T00:10:20.151Z,69.50
2017-07-08T00:12:47.719Z,69.80
2017-07-08T00:15:15.292Z,70.10
2017-07-08T00:17:42.869Z,70.70
2017-07-08T00:20:10.406Z,71.00
2017-07-08T00:22:37.966Z,70.90
2017-07-08T00:25:05.498Z,71.00
2017-07-08T00:27:33.076Z,70.80
2017-07-08T00:30:00.638Z,70.70
2017-07-08T00:32:28.189Z,70.50
2017-07-08T00:34:55.751Z,70.10
2017-07-08T00:37:23.290Z,70.40
2017-07-08T00:39:50.949Z,70.80
2017-07-08T00:42:18.490Z,70.70
2017-07-08T00:44:46.099Z,70.70
2017-07-08T00:47:13.657Z,70.60
2017-07-08T00:49:41.189Z,71.10
2017-07-08T00:52:08.765Z,70.80
2017-07-08T00:54:36.315Z,69.90
2017-07-08T00:57:03.918Z,69.20
2017-07-08T00:59:31.458Z,68.50
2017-07-08T01:01:59.001Z,69.40
2017-07-08T01:04:26.599Z,70.40
2017-07-08T01:06:54.139Z,71.60
2017-07-08T01:09:21.714Z,71.90
2017-07-08T01:11:49.262Z,72.00
2017-07-08T01:14:16.843Z,72.30
2017-07-08T01:16:44.403Z,72.10
2017-07-08T01:19:11.976Z,70.50
2017-07-08T01:21:39.561Z,69.30
2017-07-08T01:24:07.106Z,70.10
2017-07-08T01:26:34.654Z,70.50
2017-07-08T01:29:02.226Z,71.30
2017-07-08T01:31:29.766Z,72.00
2017-07-08T01:33:57.329Z,72.10
2017-07-08T01:36:24.865Z,72.30
2017-07-08T01:38:52.451Z,72.10
2017-07-08T01:41:19.997Z,71.90
2017-07-08T01:43:47.529Z,71.90
2017-07-08T01:46:15.097Z,72.20
2017-07-08T01:48:42.649Z,70.70
2017-07-08T01:51:10.236Z,70.30
2017-07-08T01:53:37.809Z,71.70
2017-07-08T01:56:05.354Z,72.80
2017-07-08T01:58:32.941Z,73.20
2017-07-08T02:01:00.496Z,73.40
2017-07-08T02:03:28.042Z,73.60
2017-07-08T02:05:55.638Z,73.80
2017-07-08T02:08:23.191Z,73.80
2017-07-08T02:10:50.753Z,74.00
2017-07-08T02:13:18.320Z,73.80
2017-07-08T02:15:45.858Z,74.20
2017-07-08T02:18:13.427Z,74.60
2017-07-08T02:20:41.253Z,74.40
2017-07-08T02:23:08.844Z,73.80
2017-07-08T02:25:36.390Z,74.10
2017-07-08T02:28:03.976Z,74.20
2017-07-08T02:30:31.513Z,73.20
2017-07-08T02:32:59.085Z,73.00
2017-07-08T02:35:26.650Z,73.60
2017-07-08T02:37:54.194Z,72.50
2017-07-08T02:40:21.815Z,73.20
2017-07-08T02:42:49.355Z,73.80
2017-07-08T02:45:16.889Z,73.90
2017-07-08T02:47:44.574Z,74.70
2017-07-08T02:50:12.130Z,74.20
2017-07-08T02:52:39.687Z,74.20
2017-07-08T02:55:07.278Z,74.40
2017-07-08T02:57:34.837Z,74.60
2017-07-08T03:00:02.379Z,74.60
2017-07-08T03:02:30.032Z,74.80
2017-07-08T03:04:57.607Z,74.80
2017-07-08T03:07:25.225Z,74.90
2017-07-08T03:09:52.769Z,75.10
2017-07-08T03:12:20.698Z,74.90
2017-07-08T03:14:48.330Z,74.70
2017-07-08T03:17:15.869Z,74.80
2017-07-08T03:19:43.407Z,75.20
2017-07-08T03:22:10.982Z,75.10
2017-07-08T03:24:38.523Z,74.90
2017-07-08T03:27:06.286Z,75.20
2017-07-08T03:29:33.862Z,75.50
2017-07-08T03:32:01.428Z,75.50
2017-07-08T03:34:28.969Z,75.20
2017-07-08T03:36:56.538Z,75.30
2017-07-08T03:39:24.081Z,74.90
2017-07-08T03:41:51.669Z,74.90
2017-07-08T03:44:19.206Z,75.00
2017-07-08T03:46:46.785Z,74.90
2017-07-08T03:49:14.383Z,75.20
2017-07-08T03:51:41.930Z,75.10
2017-07-08T03:54:09.523Z,75.50
2017-07-08T03:56:37.323Z,75.30
2017-07-08T03:59:04.910Z,75.80
2017-07-08T04:01:32.747Z,76.10
2017-07-08T04:04:00.335Z,75.80
2017-07-08T04:06:27.885Z,75.90
2017-07-08T04:08:55.454Z,76.20
2017-07-08T04:11:23.010Z,75.90
2017-07-08T04:13:50.588Z,76.00
2017-07-08T04:16:18.140Z,75.70
2017-07-08T04:18:45.770Z,75.90
2017-07-08T04:21:13.317Z,75.90
2017-07-08T04:23:40.857Z,75.70
2017-07-08T04:26:08.434Z,75.80
2017-07-08T04:28:35.969Z,76.00
2017-07-08T04:31:03.518Z,76.00
2017-07-08T04:33:31.107Z,76.60
2017-07-08T04:35:58.672Z,77.00
2017-07-08T04:38:26.222Z,76.60
2017-07-08T04:40:53.806Z,76.30
2017-07-08T04:43:21.349Z,76.30
2017-07-08T04:45:48.942Z,75.70
2017-07-08T04:48:16.496Z,75.20
2017-07-08T04:50:44.088Z,74.80
2017-07-08T04:53:11.962Z,74.70
2017-07-08T04:55:39.502Z,74.90
2017-07-08T04:58:07.059Z,74.50
2017-07-08T05:00:34.649Z,74.40
2017-07-08T05:03:02.209Z,74.60
2017-07-08T05:05:29.793Z,74.60
2017-07-08T05:07:57.329Z,74.60
2017-07-08T05:10:24.869Z,74.60
2017-07-08T05:12:52.778Z,74.60
2017-07-08T05:15:20.322Z,74.50
2017-07-08T05:17:47.907Z,74.20
2017-07-08T05:20:15.458Z,73.80
2017-07-08T05:22:42.993Z,73.70
2017-07-08T05:25:10.573Z,73.20
2017-07-08T05:27:38.135Z,72.70
2017-07-08T05:30:05.719Z,72.90
2017-07-08T05:32:33.252Z,72.00
2017-07-08T05:35:00.839Z,71.00
2017-07-08T05:37:28.387Z,71.30
2017-07-08T05:39:55.929Z,71.40
2017-07-08T05:42:23.502Z,71.10
2017-07-08T05:44:51.068Z,70.90
2017-07-08T05:47:18.661Z,71.10
2017-07-08T05:49:46.214Z,72.70
2017-07-08T05:52:13.769Z,72.20
2017-07-08T05:54:41.359Z,72.00
2017-07-08T05:57:08.901Z,71.30
2017-07-08T05:59:36.447Z,70.00
2017-07-08T06:02:04.035Z,69.50
2017-07-08T06:04:31.593Z,68.90
2017-07-08T06:06:59.135Z,67.60
2017-07-08T06:09:26.742Z,68.00
2017-07-08T06:11:54.279Z,66.70
2017-07-08T06:14:21.822Z,66.50
2017-07-08T06:16:49.414Z,65.70
2017-07-08T06:19:16.954Z,62.10
2017-07-08T06:21:45.309Z,59.10
2017-07-08T06:24:12.877Z,57.10
2017-07-08T06:26:40.451Z,55.00
2017-07-08T06:29:07.986Z,54.10
2017-07-08T06:31:35.563Z,53.10
2017-07-08T06:34:03.150Z,52.00
2017-07-08T06:36:30.687Z,52.30
2017-07-08T06:38:58.248Z,50.30
2017-07-08T06:41:25.826Z,49.90
2017-07-08T06:43:53.378Z,49.70
2017-07-08T06:46:20.974Z,50.10
2017-07-08T06:48:49.158Z,50.10
2017-07-08T06:51:16.711Z,50.10
2017-07-08T06:53:44.286Z,49.60
2017-07-08T06:56:11.825Z,50.00
2017-07-08T06:58:39.358Z,49.50
2017-07-08T07:01:06.956Z,49.50
2017-07-08T07:03:34.493Z,49.70
2017-07-08T07:06:02.029Z,49.80
2017-07-08T07:08:29.593Z,49.80
2017-07-08T07:10:57.150Z,49.60
2017-07-08T07:13:24.721Z,49.50
2017-07-08T07:15:52.310Z,49.80
2017-07-08T07:18:19.847Z,49.30
2017-07-08T07:20:47.377Z,50.00
2017-07-08T07:23:14.940Z,49.40
2017-07-08T07:25:42.505Z,48.30
2017-07-08T07:28:10.142Z,49.30
2017-07-08T07:30:37.666Z,48.90
2017-07-08T07:33:05.234Z,49.50
2017-07-08T07:35:32.773Z,49.40
2017-07-08T07:38:00.333Z,49.30
2017-07-08T07:40:27.862Z,49.20
2017-07-08T07:42:55.471Z,49.20
2017-07-08T07:45:23.005Z,49.20
2017-07-08T07:47:50.548Z,49.00
2017-07-08T07:50:18.113Z,49.30
2017-07-08T07:52:46.560Z,50.10
2017-07-08T07:55:14.725Z,48.80
2017-07-08T07:57:42.247Z,48.30
2017-07-08T08:00:09.783Z,49.20
2017-07-08T08:02:37.351Z,49.30
2017-07-08T08:05:04.928Z,50.80
2017-07-08T08:07:33.106Z,50.30
2017-07-08T08:10:00.685Z,49.00
2017-07-08T08:12:28.228Z,48.70
2017-07-08T08:14:55.802Z,49.20
2017-07-08T08:17:23.340Z,49.80
2017-07-08T08:19:50.903Z,48.60
2017-07-08T08:22:18.461Z,48.60
2017-07-08T08:24:46.034Z,48.30
2017-07-08T08:27:13.613Z,47.90
2017-07-08T08:29:41.139Z,47.20
2017-07-08T08:32:08.691Z,48.10
2017-07-08T08:34:36.261Z,47.20
2017-07-08T08:37:03.801Z,47.70
2017-07-08T08:39:31.375Z,47.40
2017-07-08T08:41:58.932Z,47.30
2017-07-08T08:44:26.511Z,47.20
2017-07-08T08:46:54.047Z,48.30
2017-07-08T08:49:21.595Z,47.10
2017-07-08T08:51:49.167Z,47.40
2017-07-08T08:54:16.858Z,46.70
2017-07-08T08:56:45.246Z,47.20
2017-07-08T08:59:12.830Z,46.50
2017-07-08T09:01:40.366Z,46.70
2017-07-08T09:04:07.958Z,45.40
2017-07-08T09:06:35.498Z,44.50
2017-07-08T09:09:04.069Z,45.60
2017-07-08T09:11:31.641Z,45.30
2017-07-08T09:13:59.207Z,43.00
2017-07-08T09:16:26.871Z,44.60
2017-07-08T09:18:54.400Z,43.70
2017-07-08T09:21:21.992Z,44.00
2017-07-08T09:23:49.518Z,42.80
2017-07-08T09:26:17.063Z,43.60
2017-07-08T09:28:45.394Z,38.70
2017-07-08T09:31:13.022Z,39.90
2017-07-08T09:33:40.614Z,39.40
2017-07-08T09:36:08.183Z,40.60
2017-07-08T09:38:35.758Z,40.60
2017-07-08T09:41:03.344Z,42.80
2017-07-08T09:43:30.881Z,43.40
2017-07-08T09:45:58.429Z,40.70
2017-07-08T09:48:25.995Z,41.50
2017-07-08T09:50:53.563Z,41.70
2017-07-08T09:53:21.101Z,43.10
2017-07-08T09:55:48.678Z,40.40
2017-07-08T09:58:16.228Z,40.70
2017-07-08T10:00:44.709Z,41.90
2017-07-08T10:03:12.305Z,43.10
2017-07-08T10:05:39.835Z,41.90
2017-07-08T10:08:07.370Z,42.10
2017-07-08T10:10:34.945Z,42.50
2017-07-08T10:13:02.571Z,42.20
2017-07-08T10:15:30.134Z,42.90
2017-07-08T10:17:57.757Z,42.70
2017-07-08T10:20:25.330Z,42.70
2017-07-08T10:22:52.890Z,41.70
2017-07-08T10:25:20.467Z,41.70
2017-07-08T10:27:48.019Z,41.60
2017-07-08T10:30:15.589Z,42.50
2017-07-08T10:32:43.689Z,41.70
2017-07-08T10:35:11.232Z,41.20
2017-07-08T10:37:38.808Z,40.80
2017-07-08T10:40:06.598Z,40.70
2017-07-08T10:42:34.193Z,40.30
2017-07-08T10:45:01.736Z,39.70
2017-07-08T10:47:29.282Z,40.00
2017-07-08T10:49:56.897Z,40.30
2017-07-08T10:52:24.458Z,39.50
2017-07-08T10:54:51.994Z,39.10
2017-07-08T10:57:20.022Z,39.90
2017-07-08T10:59:47.880Z,40.00
2017-07-08T11:02:15.461Z,39.30
2017-07-08T11:04:43.032Z,39.50
2017-07-08T11:07:10.690Z,39.00
2017-07-08T11:09:38.953Z,38.30
2017-07-08T11:12:09.360Z,38.60
2017-07-08T11:14:37.167Z,38.30
2017-07-08T11:17:08.670Z,38.30
2017-07-08T11:19:36.244Z,38.10
2017-07-08T11:22:03.817Z,37.90
2017-07-08T11:24:31.366Z,37.70
2017-07-08T11:26:58.934Z,37.90
2017-07-08T11:29:26.517Z,37.20
2017-07-08T11:31:54.064Z,37.30
2017-07-08T11:34:21.598Z,37.80
2017-07-08T11:36:49.154Z,37.60
2017-07-08T11:39:16.730Z,38.00
2017-07-08T11:41:44.296Z,38.10
2017-07-08T11:44:11.846Z,38.10
2017-07-08T11:46:39.409Z,37.70
2017-07-08T11:49:07.765Z,39.10
2017-07-08T11:51:35.360Z,38.70
2017-07-08T11:54:02.924Z,39.20
2017-07-08T11:56:30.464Z,40.10
2017-07-08T11:58:58.027Z,40.00
2017-07-08T12:01:25.568Z,40.40
2017-07-08T12:03:53.484Z,40.30
2017-07-08T12:06:21.012Z,40.90
2017-07-08T12:08:48.557Z,41.30
2017-07-08T12:11:16.128Z,42.30
2017-07-08T12:13:43.687Z,42.80
2017-07-08T12:16:11.274Z,44.00
2017-07-08T12:18:38.833Z,44.10
2017-07-08T12:21:06.441Z,44.20
2017-07-08T12:23:33.972Z,44.40
2017-07-08T12:26:01.524Z,43.70
2017-07-08T12:28:29.104Z,43.80
2017-07-08T12:30:56.674Z,44.30
2017-07-08T12:33:24.214Z,44.50
2017-07-08T12:35:51.782Z,44.80
2017-07-08T12:38:19.676Z,44.80
2017-07-08T12:40:47.265Z,45.50
2017-07-08T12:43:14.829Z,45.00
2017-07-08T12:45:42.421Z,45.60
2017-07-08T12:48:09.945Z,46.00
2017-07-08T12:50:37.987Z,45.50
2017-07-08T12:53:05.591Z,45.40
2017-07-08T12:55:33.206Z,45.70
2017-07-08T12:58:00.743Z,46.00
2017-07-08T13:00:28.276Z,46.80
2017-07-08T13:02:55.890Z,47.30
2017-07-08T13:05:23.433Z,46.90
2017-07-08T13:07:50.974Z,47.10
2017-07-08T13:10:18.563Z,47.60
2017-07-08T13:12:46.109Z,46.90
2017-07-08T13:15:13.672Z,47.30
2017-07-08T13:17:41.211Z,47.00
2017-07-08T13:20:08.797Z,48.00
2017-07-08T13:22:36.335Z,47.10
2017-07-08T13:25:03.865Z,48.00
2017-07-08T13:27:31.425Z,47.70
2017-07-08T13:29:58.965Z,47.20
2017-07-08T13:32:26.538Z,46.70
2017-07-08T13:34:54.086Z,46.10
2017-07-08T13:37:21.674Z,46.30
2017-07-08T13:39:49.245Z,45.50
2017-07-08T13:42:16.789Z,45.30
2017-07-08T13:44:44.610Z,44.90
2017-07-08T13:47:12.144Z,44.70
2017-07-08T13:49:39.706Z,44.80
2017-07-08T13:52:07.268Z,44.80
2017-07-08T13:54:34.843Z,43.50
2017-07-08T13:57:02.383Z,42.50
2017-07-08T13:59:30.865Z,41.60
2017-07-08T14:01:58.416Z,41.50
2017-07-08T14:04:28.602Z,42.90
2017-07-08T14:06:56.194Z,42.20
2017-07-08T14:09:23.723Z,41.70
2017-07-08T14:11:51.248Z,40.10
2017-07-08T14:14:18.953Z,40.10
2017-07-08T14:16:46.490Z,39.20
2017-07-08T14:19:14.062Z,41.00
2017-07-08T14:21:41.585Z,43.40
2017-07-08T14:24:09.148Z,44.50
2017-07-08T14:26:36.685Z,44.60
2017-07-08T14:29:04.262Z,44.90
2017-07-08T14:31:31.798Z,43.50
2017-07-08T14:33:59.413Z,43.90
2017-07-08T14:36:26.997Z,43.30
2017-07-08T14:38:56.800Z,43.30
2017-07-08T14:41:24.871Z,43.80
2017-07-08T14:43:53.993Z,44.20
2017-07-08T14:46:21.530Z,45.10
2017-07-08T14:48:49.075Z,45.70
2017-07-08T14:51:16.678Z,45.40
2017-07-08T14:53:44.222Z,45.40
2017-07-08T14:56:12.033Z,45.30
2017-07-08T14:58:39.573Z,45.90
2017-07-08T15:01:07.110Z,45.70
2017-07-08T15:03:34.681Z,45.50
2017-07-08T15:06:02.228Z,44.10
2017-07-08T15:08:29.780Z,44.10
2017-07-08T15:10:57.360Z,44.50
2017-07-08T15:13:24.966Z,45.00
2017-07-08T15:15:52.507Z,44.20
2017-07-08T15:18:20.100Z,43.00
2017-07-08T15:20:47.645Z,42.20
2017-07-08T15:23:15.225Z,42.40
2017-07-08T15:25:42.810Z,42.10
2017-07-08T15:28:10.358Z,40.90
2017-07-08T15:30:37.929Z,41.00
2017-07-08T15:33:05.463Z,41.70
2017-07-08T15:35:33.001Z,40.90
2017-07-08T15:38:00.589Z,40.50
2017-07-08T15:40:28.127Z,40.90
2017-07-08T15:42:55.705Z,41.20
2017-07-08T15:45:23.244Z,40.60
2017-07-08T15:47:50.805Z,41.10
2017-07-08T15:50:18.397Z,41.20
2017-07-08T15:52:45.935Z,40.90
2017-07-08T15:55:13.698Z,41.00
2017-07-08T15:57:41.268Z,41.00
2017-07-08T16:00:09.606Z,41.00
2017-07-08T16:02:37.172Z,41.60
2017-07-08T16:05:04.706Z,42.00
2017-07-08T16:07:32.265Z,42.60
2017-07-08T16:09:59.874Z,43.20
2017-07-08T16:12:27.449Z,43.70
2017-07-08T16:14:55.250Z,43.40
2017-07-08T16:17:22.779Z,43.60
2017-07-08T16:19:50.308Z,44.10
2017-07-08T16:22:17.875Z,44.40
2017-07-08T16:24:45.434Z,45.40
2017-07-08T16:27:13.001Z,45.80
2017-07-08T16:29:41.343Z,46.00
2017-07-08T16:32:08.967Z,46.30
2017-07-08T16:34:36.534Z,46.70
2017-07-08T16:37:04.198Z,46.40
2017-07-08T16:39:31.770Z,46.00
2017-07-08T16:41:59.732Z,45.40
2017-07-08T16:44:28.152Z,44.40
2017-07-08T16:46:55.691Z,44.70
2017-07-08T16:49:23.250Z,45.30
2017-07-08T16:51:52.957Z,45.70
2017-07-08T16:54:20.525Z,45.60
2017-07-08T16:56:48.141Z,45.90
2017-07-08T16:59:16.211Z,46.10
2017-07-08T17:01:43.805Z,46.50
2017-07-08T17:04:11.343Z,47.10
2017-07-08T17:06:38.903Z,49.00
2017-07-08T17:09:07.057Z,49.80
2017-07-08T17:11:34.588Z,50.60
2017-07-08T17:14:02.236Z,51.00
2017-07-08T17:16:29.833Z,51.40
2017-07-08T17:18:57.423Z,51.50
2017-07-08T17:21:24.965Z,52.00
2017-07-08T17:23:52.537Z,52.30
2017-07-08T17:26:20.105Z,52.40
2017-07-08T17:28:47.693Z,51.90
2017-07-08T17:31:15.241Z,52.10
2017-07-08T17:33:42.821Z,51.90
2017-07-08T17:36:10.397Z,52.20
2017-07-08T17:38:37.946Z,52.20
2017-07-08T17:41:05.500Z,53.00
2017-07-08T17:43:33.198Z,53.40
2017-07-08T17:46:00.773Z,53.50
2017-07-08T17:48:28.321Z,53.40
2017-07-08T17:50:55.920Z,53.70
2017-07-08T17:53:23.451Z,53.90
2017-07-08T17:55:50.992Z,54.20
2017-07-08T17:58:18.850Z,53.60
2017-07-08T18:00:46.393Z,53.80
2017-07-08T18:03:13.948Z,53.70
2017-07-08T18:05:42.471Z,53.60
2017-07-08T18:08:10.019Z,53.80
2017-07-08T18:10:37.571Z,53.70
2017-07-08T18:13:05.158Z,54.20
2017-07-08T18:15:32.705Z,54.30
2017-07-08T18:18:00.242Z,54.60
2017-07-08T18:20:27.842Z,54.50
2017-07-08T18:22:55.435Z,54.80
2017-07-08T18:25:23.938Z,55.00
2017-07-08T18:27:51.489Z,55.00
2017-07-08T18:30:19.904Z,55.10
2017-07-08T18:32:47.466Z,55.40
2017-07-08T18:35:17.062Z,55.30
2017-07-08T18:37:44.651Z,55.90
2017-07-08T18:40:12.200Z,56.10
2017-07-08T18:42:39.744Z,55.90
2017-07-08T18:45:07.322Z,55.90
2017-07-08T18:47:34.886Z,55.40
2017-07-08T18:50:02.734Z,55.40
2017-07-08T18:52:30.874Z,55.70
2017-07-08T18:54:58.426Z,55.70
2017-07-08T18:57:26.054Z,56.30
2017-07-08T18:59:53.589Z,56.40
2017-07-08T19:02:21.139Z,56.40
2017-07-08T19:04:48.715Z,56.50
2017-07-08T19:07:16.293Z,56.70
2017-07-08T19:09:43.841Z,56.50
2017-07-08T19:12:11.438Z,56.90
2017-07-08T19:14:38.977Z,57.20
2017-07-08T19:17:06.578Z,57.60
2017-07-08T19:19:34.192Z,57.80
2017-07-08T19:22:01.738Z,57.80
2017-07-08T19:24:29.332Z,57.60
2017-07-08T19:26:56.894Z,57.90
2017-07-08T19:29:24.437Z,57.80
2017-07-08T19:31:52.027Z,58.10
2017-07-08T19:34:19.583Z,58.70
2017-07-08T19:36:47.191Z,58.90
2017-07-08T19:39:14.773Z,59.10
2017-07-08T19:41:42.306Z,59.40
2017-07-08T19:44:09.852Z,59.50
2017-07-08T19:46:37.435Z,59.80
2017-07-08T19:49:04.989Z,60.30
2017-07-08T19:51:32.563Z,60.40
2017-07-08T19:54:00.106Z,61.30
2017-07-08T19:56:27.671Z,61.40
2017-07-08T19:58:55.242Z,62.10
2017-07-08T20:01:22.789Z,62.60
2017-07-08T20:03:50.373Z,63.00
2017-07-08T20:06:17.919Z,63.20
2017-07-08T20:08:45.470Z,63.40
2017-07-08T20:11:13.056Z,63.80
2017-07-08T20:13:40.682Z,64.60
2017-07-08T20:16:08.222Z,65.20
2017-07-08T20:18:35.797Z,65.20
2017-07-08T20:21:03.333Z,65.50
2017-07-08T20:23:30.921Z,65.70
2017-07-08T20:25:58.528Z,66.30
2017-07-08T20:28:26.073Z,66.70
2017-07-08T20:30:54.565Z,66.60
2017-07-08T20:33:22.131Z,66.80
2017-07-08T20:35:49.671Z,67.00
2017-07-08T20:38:17.267Z,66.90
2017-07-08T20:40:44.815Z,67.80
2017-07-08T20:43:12.352Z,67.60
2017-07-08T20:45:39.929Z,67.60
2017-07-08T20:48:07.704Z,67.60
2017-07-08T20:50:35.273Z,67.60
2017-07-08T20:53:02.857Z,68.00
2017-07-08T20:55:30.409Z,67.90
2017-07-08T20:57:57.962Z,67.90
2017-07-08T21:00:25.533Z,68.00
2017-07-08T21:02:53.115Z,68.30
2017-07-08T21:05:20.680Z,68.30
2017-07-08T21:07:48.223Z,68.70
2017-07-08T21:10:15.800Z,68.50
2017-07-08T21:12:43.346Z,68.60
2017-07-08T21:15:10.950Z,68.20
2017-07-08T21:17:38.542Z,68.50
2017-07-08T21:20:06.438Z,68.50
2017-07-08T21:22:33.996Z,68.60
2017-07-08T21:25:01.533Z,69.00
2017-07-08T21:27:29.119Z,68.90
2017-07-08T21:29:56.658Z,68.70
2017-07-08T21:32:24.226Z,68.40
2017-07-08T21:34:51.806Z,68.20
2017-07-08T21:37:20.681Z,68.30
2017-07-08T21:39:48.276Z,68.20
2017-07-08T21:42:16.431Z,68.10
2017-07-08T21:44:43.976Z,68.20
2017-07-08T21:47:11.560Z,68.30
2017-07-08T21:49:39.137Z,68.30
2017-07-08T21:52:06.702Z,68.50
2017-07-08T21:54:37.069Z,68.80
2017-07-08T21:57:04.619Z,68.90
2017-07-08T21:59:32.163Z,69.10
2017-07-08T22:01:59.730Z,68.20
2017-07-08T22:04:27.310Z,68.00
2017-07-08T22:06:54.885Z,68.50
2017-07-08T22:09:22.459Z,68.70
2017-07-08T22:11:50.033Z,68.60
2017-07-08T22:14:17.596Z,69.00
2017-07-08T22:16:45.147Z,68.80
2017-07-08T22:19:12.728Z,69.00
2017-07-08T22:21:40.358Z,68.90
2017-07-08T22:24:07.938Z,68.60
2017-07-08T22:26:35.475Z,68.50
2017-07-08T22:29:03.052Z,68.70
2017-07-08T22:31:30.626Z,68.90
2017-07-08T22:33:58.165Z,68.90
2017-07-08T22:36:25.714Z,68.50
2017-07-08T22:38:53.298Z,68.30
2017-07-08T22:41:20.838Z,68.30
2017-07-08T22:43:48.420Z,68.50
2017-07-08T22:46:17.738Z,68.30
2017-07-08T22:48:45.289Z,68.70
2017-07-08T22:51:12.879Z,68.70
2017-07-08T22:53:40.447Z,68.70
2017-07-08T22:56:08.027Z,68.60
2017-07-08T22:58:35.622Z,68.60
2017-07-08T23:01:03.961Z,68.40
2017-07-08T23:03:31.498Z,68.70
2017-07-08T23:05:59.089Z,68.30
2017-07-08T23:08:26.875Z,68.50
2017-07-08T23:10:54.436Z,68.70
2017-07-08T23:13:22.002Z,68.90
2017-07-08T23:15:49.543Z,68.90
2017-07-08T23:18:17.076Z,68.80
2017-07-08T23:20:44.672Z,68.60
2017-07-08T23:23:12.213Z,68.60
2017-07-08T23:25:40.565Z,68.50
2017-07-08T23:28:08.134Z,68.50
2017-07-08T23:30:35.687Z,68.60
2017-07-08T23:33:03.294Z,69.00
2017-07-08T23:35:30.835Z,68.80
2017-07-08T23:37:58.369Z,68.90
2017-07-08T23:40:25.938Z,68.90
2017-07-08T23:42:53.509Z,69.00
2017-07-08T23:45:21.080Z,69.40
2017-07-08T23:47:48.636Z,69.40
2017-07-08T23:50:16.186Z,69.50
2017-07-08T23:52:43.754Z,70.10
2017-07-08T23:55:11.286Z,70.40
2017-07-08T23:57:38.869Z,70.20
